createdAt,value
2023-05-18T00:00:29.712Z,7.85
2023-05-18T00:01:29.655Z,7.82
2023-05-18T00:02:29.772Z,7.82
2023-05-18T00:03:29.789Z,7.82
2023-05-18T00:04:29.722Z,7.82
2023-05-18T00:05:29.796Z,7.85
2023-05-18T00:06:29.627Z,7.85
2023-05-18T00:07:29.684Z,7.84
2023-05-18T00:08:29.608Z,7.81
2023-05-18T00:09:29.764Z,7.79
2023-05-18T00:10:29.635Z,7.76
2023-05-18T00:11:29.575Z,7.73
2023-05-18T00:12:29.575Z,7.71
2023-05-18T00:13:29.558Z,7.71
2023-05-18T00:14:29.593Z,7.69
2023-05-18T00:15:29.780Z,7.57
2023-05-18T00:16:29.560Z,7.54
2023-05-18T00:17:29.635Z,7.54
2023-05-18T00:18:29.686Z,7.51
2023-05-18T00:19:29.514Z,7.48
2023-05-18T00:20:29.534Z,7.50
2023-05-18T00:21:29.450Z,7.44
2023-05-18T00:22:29.864Z,7.32
2023-05-18T00:23:29.428Z,7.26
2023-05-18T00:24:29.546Z,7.29
2023-05-18T00:25:29.653Z,7.32
2023-05-18T00:26:30.255Z,7.30
2023-05-18T00:27:29.383Z,7.27
2023-05-18T00:28:29.369Z,7.26
2023-05-18T00:29:30.135Z,7.26
2023-05-18T00:30:29.384Z,7.29
2023-05-18T00:31:29.372Z,7.30
2023-05-18T00:32:29.374Z,7.32
2023-05-18T00:33:29.330Z,7.29
2023-05-18T00:34:37.965Z,7.27
2023-05-18T00:35:29.471Z,7.24
2023-05-18T00:36:29.326Z,7.19
2023-05-18T00:37:30.770Z,7.21
2023-05-18T00:38:34.386Z,7.21
2023-05-18T00:39:29.319Z,7.23
2023-05-18T00:40:29.302Z,7.21
2023-05-18T00:41:29.262Z,7.21
2023-05-18T00:42:46.977Z,7.14
2023-05-18T00:43:29.220Z,7.08
2023-05-18T00:44:29.273Z,7.05
2023-05-18T00:45:29.560Z,7.05
2023-05-18T00:46:29.360Z,7.05
2023-05-18T00:47:29.182Z,7.05
2023-05-18T00:48:29.198Z,7.07
2023-05-18T00:49:29.167Z,7.00
2023-05-18T00:50:29.177Z,6.99
2023-05-18T00:51:29.182Z,6.94
2023-05-18T00:52:29.181Z,6.91
2023-05-18T00:53:29.121Z,6.96
2023-05-18T00:54:29.136Z,6.97
2023-05-18T00:55:29.306Z,7.00
2023-05-18T00:56:29.147Z,7.01
2023-05-18T00:57:29.089Z,7.04
2023-05-18T00:58:29.130Z,7.04
2023-05-18T00:59:29.065Z,7.05
2023-05-18T01:00:29.101Z,7.04
2023-05-18T01:01:29.139Z,7.05
2023-05-18T01:02:29.099Z,7.00
2023-05-18T01:03:29.078Z,6.97
2023-05-18T01:04:29.106Z,6.93
2023-05-18T01:05:29.216Z,6.89
2023-05-18T01:06:29.014Z,6.89
2023-05-18T01:07:28.979Z,6.90
2023-05-18T01:08:28.995Z,6.94
2023-05-18T01:09:28.985Z,6.99
2023-05-18T01:10:28.970Z,7.04
2023-05-18T01:11:28.990Z,7.01
2023-05-18T01:12:28.986Z,7.07
2023-05-18T01:13:28.929Z,7.12
2023-05-18T01:14:30.706Z,7.11
2023-05-18T01:15:29.031Z,7.01
2023-05-18T01:16:29.014Z,7.00
2023-05-18T01:17:28.913Z,6.96
2023-05-18T01:18:28.891Z,6.94
2023-05-18T01:19:28.892Z,6.94
2023-05-18T01:20:28.971Z,6.93
2023-05-18T01:21:28.844Z,6.91
2023-05-18T01:22:28.885Z,6.90
2023-05-18T01:23:28.821Z,6.87
2023-05-18T01:24:28.823Z,6.79
2023-05-18T01:25:28.930Z,6.76
2023-05-18T01:26:28.837Z,6.76
2023-05-18T01:27:28.799Z,6.78
2023-05-18T01:28:28.814Z,6.79
2023-05-18T01:29:28.760Z,6.76
2023-05-18T01:30:28.761Z,6.82
2023-05-18T01:31:28.868Z,6.83
2023-05-18T01:32:28.783Z,6.83
2023-05-18T01:33:28.717Z,6.86
2023-05-18T01:34:28.717Z,6.86
2023-05-18T01:35:28.911Z,6.89
2023-05-18T01:36:28.741Z,6.87
2023-05-18T01:37:28.664Z,6.87
2023-05-18T01:38:28.730Z,6.87
2023-05-18T01:39:28.651Z,6.87
2023-05-18T01:40:28.678Z,6.89
2023-05-18T01:41:28.625Z,6.89
2023-05-18T01:42:28.700Z,6.83
2023-05-18T01:43:28.626Z,6.81
2023-05-18T01:44:36.976Z,6.75
2023-05-18T01:45:28.864Z,6.65
2023-05-18T01:46:28.650Z,6.65
2023-05-18T01:47:28.608Z,6.69
2023-05-18T01:48:31.383Z,6.71
2023-05-18T01:49:36.351Z,6.68
2023-05-18T01:50:28.564Z,6.69
2023-05-18T01:51:43.335Z,6.72
2023-05-18T01:52:28.544Z,6.75
2023-05-18T01:53:28.500Z,6.75
2023-05-18T01:54:28.571Z,6.76
2023-05-18T01:55:28.643Z,6.69
2023-05-18T01:56:36.078Z,6.71
2023-05-18T01:57:28.484Z,6.68
2023-05-18T01:58:28.498Z,6.69
2023-05-18T01:59:28.499Z,6.69
2023-05-18T02:00:28.475Z,6.68
2023-05-18T02:01:28.449Z,6.58
2023-05-18T02:02:42.930Z,6.42
2023-05-18T02:03:28.543Z,6.28
2023-05-18T02:04:28.399Z,6.21
2023-05-18T02:05:28.813Z,6.19
2023-05-18T02:06:28.372Z,6.13
2023-05-18T02:07:28.388Z,6.11
2023-05-18T02:08:28.380Z,6.02
2023-05-18T02:09:35.371Z,5.95
2023-05-18T02:10:28.369Z,5.95
2023-05-18T02:11:42.857Z,5.95
2023-05-18T02:12:28.338Z,5.90
2023-05-18T02:13:30.857Z,5.84
2023-05-18T02:14:28.338Z,5.81
2023-05-18T02:15:28.431Z,5.84
2023-05-18T02:16:28.298Z,5.87
2023-05-18T02:17:29.877Z,5.90
2023-05-18T02:18:28.269Z,5.90
2023-05-18T02:19:28.289Z,5.87
2023-05-18T02:20:30.240Z,5.88
2023-05-18T02:21:28.249Z,5.84
2023-05-18T02:22:28.201Z,5.81
2023-05-18T02:23:28.217Z,5.83
2023-05-18T02:24:28.208Z,5.81
2023-05-18T02:25:28.266Z,5.81
2023-05-18T02:26:28.184Z,5.80
2023-05-18T02:27:28.214Z,5.74
2023-05-18T02:28:28.125Z,5.78
2023-05-18T02:29:28.190Z,5.80
2023-05-18T02:30:28.122Z,5.77
2023-05-18T02:31:28.181Z,5.75
2023-05-18T02:32:28.190Z,5.73
2023-05-18T02:33:28.132Z,5.75
2023-05-18T02:34:28.133Z,5.73
2023-05-18T02:35:28.404Z,5.75
2023-05-18T02:36:28.082Z,5.81
2023-05-18T02:37:28.067Z,5.85
2023-05-18T02:38:28.045Z,5.87
2023-05-18T02:39:28.076Z,5.92
2023-05-18T02:40:28.048Z,5.87
2023-05-18T02:41:28.031Z,5.88
2023-05-18T02:42:27.996Z,5.90
2023-05-18T02:43:28.017Z,5.90
2023-05-18T02:44:27.977Z,5.88
2023-05-18T02:45:28.164Z,5.85
2023-05-18T02:46:28.031Z,5.85
2023-05-18T02:47:27.996Z,5.84
2023-05-18T02:48:27.950Z,5.84
2023-05-18T02:49:27.958Z,5.83
2023-05-18T02:50:27.956Z,5.84
2023-05-18T02:51:27.948Z,5.81
2023-05-18T02:52:27.913Z,5.80
2023-05-18T02:53:33.413Z,5.78
2023-05-18T02:54:27.884Z,5.77
2023-05-18T02:55:27.986Z,5.75
2023-05-18T02:56:27.875Z,5.75
2023-05-18T02:57:29.873Z,5.74
2023-05-18T02:59:39.116Z,5.73
2023-05-18T03:00:40.055Z,5.65
2023-05-18T03:01:40.194Z,5.60
2023-05-18T03:02:54.127Z,5.62
2023-05-18T03:03:40.028Z,5.62
2023-05-18T03:04:39.968Z,5.62
2023-05-18T03:05:39.966Z,5.65
2023-05-18T03:06:39.967Z,5.67
2023-05-18T03:07:39.970Z,5.70
2023-05-18T03:08:39.915Z,5.73
2023-05-18T03:10:51.162Z,5.75
2023-05-18T03:12:21.604Z,5.77
2023-05-18T03:12:58.586Z,5.78
2023-05-18T03:13:52.043Z,5.67
2023-05-18T03:14:52.063Z,5.65
2023-05-18T03:15:52.046Z,5.63
2023-05-18T03:16:52.064Z,5.60
2023-05-18T03:17:52.084Z,5.56
2023-05-18T03:18:52.629Z,5.62
2023-05-18T03:19:51.992Z,5.63
2023-05-18T03:20:58.592Z,5.67
2023-05-18T03:21:53.277Z,5.74
2023-05-18T03:22:57.142Z,5.74
2023-05-18T03:24:16.256Z,5.75
2023-05-18T03:25:06.641Z,5.80
2023-05-18T03:25:51.936Z,5.80
2023-05-18T03:26:51.939Z,5.80
2023-05-18T03:27:51.942Z,5.77
2023-05-18T03:28:51.948Z,5.78
2023-05-18T03:29:51.873Z,5.80
2023-05-18T03:30:51.935Z,5.80
2023-05-18T03:31:53.958Z,5.78
2023-05-18T03:32:55.186Z,5.73
2023-05-18T03:33:51.856Z,5.63
2023-05-18T03:34:51.860Z,5.56
2023-05-18T03:35:59.324Z,5.48
2023-05-18T03:36:51.837Z,5.45
2023-05-18T03:37:51.837Z,5.41
2023-05-18T03:38:51.813Z,5.30
2023-05-18T03:39:51.787Z,5.24
2023-05-18T03:40:51.818Z,5.20
2023-05-18T03:41:51.808Z,5.17
2023-05-18T03:42:51.761Z,5.20
2023-05-18T03:43:58.596Z,5.20
2023-05-18T03:44:51.786Z,5.26
2023-05-18T03:45:51.809Z,5.30
2023-05-18T03:46:51.852Z,5.33
2023-05-18T03:47:51.726Z,5.41
2023-05-18T03:48:51.756Z,5.42
2023-05-18T03:49:51.670Z,5.38
2023-05-18T03:50:51.715Z,5.38
2023-05-18T03:51:58.579Z,5.38
2023-05-18T03:52:58.740Z,5.37
2023-05-18T03:53:57.734Z,5.35
2023-05-18T03:54:52.613Z,5.33
2023-05-18T03:55:51.649Z,5.35
2023-05-18T03:56:51.632Z,5.38
2023-05-18T03:57:51.606Z,5.40
2023-05-18T03:58:51.616Z,5.45
2023-05-18T03:59:51.572Z,5.44
2023-05-18T04:00:51.581Z,5.38
2023-05-18T04:01:52.901Z,5.33
2023-05-18T04:02:51.717Z,5.32
2023-05-18T04:03:51.609Z,5.32
2023-05-18T04:04:54.183Z,5.33
2023-05-18T04:05:51.504Z,5.30
2023-05-18T04:06:51.579Z,5.29
2023-05-18T04:07:51.495Z,5.27
2023-05-18T04:08:51.514Z,5.23
2023-05-18T04:09:51.493Z,5.19
2023-05-18T04:10:51.545Z,5.11
2023-05-18T04:11:51.470Z,5.06
2023-05-18T04:13:06.129Z,5.08
2023-05-18T04:13:51.455Z,5.09
2023-05-18T04:14:51.458Z,5.09
2023-05-18T04:15:51.399Z,5.09
2023-05-18T04:16:51.501Z,5.01
2023-05-18T04:17:51.474Z,4.88
2023-05-18T04:18:51.508Z,4.69
2023-05-18T04:19:51.360Z,4.64
2023-05-18T04:20:51.389Z,4.61
2023-05-18T04:24:14.711Z,4.50
2023-05-18T04:25:15.732Z,4.47
2023-05-18T04:26:15.676Z,4.51
2023-05-18T04:27:17.706Z,4.51
2023-05-18T04:28:15.677Z,4.47
2023-05-18T04:29:15.718Z,4.49
2023-05-18T04:30:23.348Z,4.50
2023-05-18T04:31:15.684Z,4.51
2023-05-18T04:32:15.650Z,4.46
2023-05-18T04:33:22.230Z,4.47
2023-05-18T04:34:15.625Z,4.49
2023-05-18T04:35:15.617Z,4.50
2023-05-18T04:36:15.590Z,4.49
2023-05-18T04:37:22.237Z,4.53
2023-05-18T04:38:15.546Z,4.54
2023-05-18T04:39:15.616Z,4.56
2023-05-18T04:40:15.576Z,4.53
2023-05-18T04:41:15.583Z,4.53
2023-05-18T04:42:15.526Z,4.53
2023-05-18T04:43:15.715Z,4.53
2023-05-18T04:44:15.501Z,4.53
2023-05-18T04:45:15.511Z,4.51
2023-05-18T04:46:15.550Z,4.49
2023-05-18T04:47:15.492Z,4.49
2023-05-18T04:48:15.463Z,4.47
2023-05-18T04:49:18.206Z,4.49
2023-05-18T04:50:15.427Z,4.53
2023-05-18T04:51:15.484Z,4.62
2023-05-18T04:52:15.424Z,4.67
2023-05-18T04:53:22.221Z,4.74
2023-05-18T04:54:15.422Z,4.79
2023-05-18T04:55:22.196Z,4.86
2023-05-18T04:56:15.369Z,4.94
2023-05-18T04:57:21.342Z,4.99
2023-05-18T04:58:15.421Z,5.04
2023-05-18T04:59:15.391Z,5.08
2023-05-18T05:00:16.014Z,5.12
2023-05-18T05:01:15.426Z,5.20
2023-05-18T05:02:15.363Z,5.24
2023-05-18T05:03:15.384Z,5.29
2023-05-18T05:04:22.176Z,5.32
2023-05-18T05:05:15.315Z,5.35
2023-05-18T05:06:15.292Z,5.38
2023-05-18T05:07:15.285Z,5.37
2023-05-18T05:08:18.170Z,5.37
2023-05-18T05:09:15.248Z,5.41
2023-05-18T05:10:20.726Z,5.56
2023-05-18T05:11:15.233Z,5.65
2023-05-18T05:12:15.247Z,5.78
2023-05-18T05:13:30.206Z,5.87
2023-05-18T05:14:15.232Z,5.99
2023-05-18T05:15:15.263Z,6.05
2023-05-18T05:16:29.731Z,6.16
2023-05-18T05:17:15.812Z,6.28
2023-05-18T05:18:15.233Z,6.33
2023-05-18T05:19:17.692Z,6.33
2023-05-18T05:20:15.132Z,6.20
2023-05-18T05:21:15.120Z,6.27
2023-05-18T05:22:15.090Z,6.33
2023-05-18T05:23:15.194Z,6.24
2023-05-18T05:24:15.072Z,6.24
2023-05-18T05:25:15.088Z,6.35
2023-05-18T05:26:22.738Z,6.32
2023-05-18T05:27:15.058Z,6.25
2023-05-18T05:28:42.572Z,6.36
2023-05-18T05:29:15.076Z,6.45
2023-05-18T05:30:15.036Z,6.46
2023-05-18T05:31:15.079Z,6.24
2023-05-18T05:32:14.994Z,6.33
2023-05-18T05:33:15.064Z,6.14
2023-05-18T05:34:14.987Z,6.06
2023-05-18T05:35:15.013Z,6.13
2023-05-18T05:36:14.963Z,6.21
2023-05-18T05:37:14.965Z,6.32
2023-05-18T05:38:14.969Z,6.40
2023-05-18T05:39:15.950Z,6.27
2023-05-18T05:40:14.909Z,6.30
2023-05-18T05:41:14.934Z,6.21
2023-05-18T05:42:14.909Z,6.08
2023-05-18T05:43:14.954Z,6.25
2023-05-18T05:44:14.905Z,6.33
2023-05-18T05:45:14.903Z,6.16
2023-05-18T05:46:14.885Z,6.06
2023-05-18T05:47:20.833Z,6.06
2023-05-18T05:48:14.891Z,6.11
2023-05-18T05:49:14.851Z,6.24
2023-05-18T05:50:14.797Z,6.43
2023-05-18T05:51:14.954Z,6.63
2023-05-18T05:52:14.780Z,6.57
2023-05-18T05:53:14.807Z,6.50
2023-05-18T05:54:14.759Z,6.68
2023-05-18T05:55:14.817Z,6.87
2023-05-18T05:56:14.743Z,6.99
2023-05-18T05:57:22.777Z,7.12
2023-05-18T05:58:14.724Z,7.27
2023-05-18T05:59:14.747Z,7.19
2023-05-18T06:00:14.684Z,7.01
2023-05-18T06:01:29.210Z,6.86
2023-05-18T06:02:14.781Z,6.71
2023-05-18T06:03:14.865Z,6.64
2023-05-18T06:04:14.683Z,6.65
2023-05-18T06:05:14.659Z,6.55
2023-05-18T06:06:14.636Z,6.69
2023-05-18T06:07:14.688Z,6.71
2023-05-18T06:08:14.616Z,6.75
2023-05-18T06:09:14.644Z,6.79
2023-05-18T06:10:14.611Z,6.97
2023-05-18T06:11:14.606Z,7.15
2023-05-18T06:12:14.571Z,6.97
2023-05-18T06:13:14.628Z,6.87
2023-05-18T06:14:14.562Z,6.99
2023-05-18T06:15:14.562Z,6.96
2023-05-18T06:16:14.563Z,6.82
2023-05-18T06:17:14.596Z,6.90
2023-05-18T06:18:14.527Z,6.99
2023-05-18T06:19:14.540Z,6.99
2023-05-18T06:20:14.500Z,7.00
2023-05-18T06:21:14.503Z,7.19
2023-05-18T06:22:14.510Z,7.37
2023-05-18T06:23:14.475Z,7.45
2023-05-18T06:24:14.462Z,7.39
2023-05-18T06:25:14.454Z,7.41
2023-05-18T06:26:14.434Z,7.52
2023-05-18T06:27:21.230Z,7.63
2023-05-18T06:28:17.216Z,7.63
2023-05-18T06:29:14.451Z,7.58
2023-05-18T06:30:14.403Z,7.71
2023-05-18T06:31:14.406Z,7.81
2023-05-18T06:32:14.457Z,7.73
2023-05-18T06:33:29.229Z,7.62
2023-05-18T06:34:14.354Z,7.55
2023-05-18T06:35:14.412Z,7.66
2023-05-18T06:36:14.332Z,7.74
2023-05-18T06:37:14.372Z,7.79
2023-05-18T06:38:17.209Z,7.86
2023-05-18T06:39:21.960Z,7.95
2023-05-18T06:40:14.298Z,8.06
2023-05-18T06:41:14.320Z,8.10
2023-05-18T06:42:14.263Z,8.24
2023-05-18T06:43:15.677Z,8.21
2023-05-18T06:44:14.237Z,8.25
2023-05-18T06:45:14.289Z,8.27
2023-05-18T06:46:14.321Z,8.04
2023-05-18T06:47:14.243Z,8.17
2023-05-18T06:48:20.716Z,8.28
2023-05-18T06:49:14.209Z,8.43
2023-05-18T06:50:24.483Z,8.63
2023-05-18T06:51:14.773Z,8.71
2023-05-18T06:52:14.163Z,8.85
2023-05-18T06:53:14.180Z,8.88
2023-05-18T06:54:14.153Z,8.88
2023-05-18T06:55:14.150Z,8.86
2023-05-18T06:56:14.131Z,8.79
2023-05-18T06:57:14.176Z,8.79
2023-05-18T06:58:14.125Z,8.85
2023-05-18T06:59:14.108Z,8.97
2023-05-18T07:00:14.106Z,9.00
2023-05-18T07:01:28.964Z,9.04
2023-05-18T07:02:14.696Z,9.06
2023-05-18T07:03:14.116Z,9.10
2023-05-18T07:04:14.130Z,9.04
2023-05-18T07:05:21.766Z,8.75
2023-05-18T07:06:14.009Z,8.64
2023-05-18T07:07:37.967Z,8.65
2023-05-18T07:08:20.774Z,8.68
2023-05-18T07:09:13.972Z,8.75
2023-05-18T07:10:14.038Z,8.86
2023-05-18T07:11:13.954Z,8.93
2023-05-18T07:12:13.972Z,9.00
2023-05-18T07:13:13.936Z,9.16
2023-05-18T07:14:13.964Z,9.26
2023-05-18T07:15:13.924Z,9.20
2023-05-18T07:16:13.950Z,9.16
2023-05-18T07:17:13.897Z,9.26
2023-05-18T07:18:13.942Z,9.41
2023-05-18T07:19:13.924Z,9.52
2023-05-18T07:20:35.858Z,9.59
2023-05-18T07:21:13.856Z,9.62
2023-05-18T07:22:13.849Z,9.74
2023-05-18T07:23:13.849Z,9.83
2023-05-18T07:24:13.844Z,9.91
2023-05-18T07:25:13.815Z,9.91
2023-05-18T07:26:13.816Z,9.88
2023-05-18T07:27:13.848Z,9.85
2023-05-18T07:28:17.768Z,9.78
2023-05-18T07:29:13.768Z,9.88
2023-05-18T07:30:13.791Z,9.74
2023-05-18T07:31:13.807Z,9.77
2023-05-18T07:32:13.773Z,9.85
2023-05-18T07:33:13.797Z,9.86
2023-05-18T07:34:13.721Z,9.85
2023-05-18T07:35:13.708Z,9.85
2023-05-18T07:36:13.725Z,9.91
2023-05-18T07:37:13.697Z,9.96
2023-05-18T07:38:13.736Z,9.86
2023-05-18T07:39:13.656Z,9.74
2023-05-18T07:40:13.693Z,9.75
2023-05-18T07:41:13.640Z,9.60
2023-05-18T07:42:13.676Z,9.59
2023-05-18T07:43:13.619Z,9.71
2023-05-18T07:44:13.622Z,9.65
2023-05-18T07:45:13.654Z,9.63
2023-05-18T07:46:13.624Z,9.81
2023-05-18T07:47:13.571Z,9.92
2023-05-18T07:48:13.711Z,10.01
2023-05-18T07:49:13.552Z,10.07
2023-05-18T07:50:13.634Z,10.16
2023-05-18T07:51:13.541Z,10.25
2023-05-18T07:52:13.574Z,10.31
2023-05-18T07:53:18.353Z,10.36
2023-05-18T07:54:13.532Z,10.35
2023-05-18T07:55:13.537Z,10.47
2023-05-18T07:56:13.513Z,10.47
2023-05-18T07:57:13.466Z,10.39
2023-05-18T07:58:13.508Z,10.49
2023-05-18T07:59:13.470Z,10.49
2023-05-18T08:00:13.480Z,10.52
2023-05-18T08:01:13.445Z,10.54
2023-05-18T08:02:13.853Z,10.42
2023-05-18T08:03:13.465Z,10.35
2023-05-18T08:04:13.521Z,10.38
2023-05-18T08:05:13.389Z,10.49
2023-05-18T08:06:13.399Z,10.62
2023-05-18T08:07:13.393Z,10.65
2023-05-18T08:08:13.376Z,10.70
2023-05-18T08:09:13.378Z,10.72
2023-05-18T08:10:13.437Z,10.84
2023-05-18T08:11:13.345Z,10.99
2023-05-18T08:12:13.362Z,11.08
2023-05-18T08:13:13.300Z,11.24
2023-05-18T08:14:13.319Z,11.38
2023-05-18T08:15:13.277Z,11.41
2023-05-18T08:16:13.436Z,11.38
2023-05-18T08:17:13.452Z,11.28
2023-05-18T08:18:13.301Z,11.30
2023-05-18T08:19:13.326Z,11.28
2023-05-18T08:20:13.246Z,11.39
2023-05-18T08:21:13.217Z,11.48
2023-05-18T08:22:13.210Z,11.49
2023-05-18T08:23:13.206Z,11.41
2023-05-18T08:24:13.211Z,11.46
2023-05-18T08:25:13.172Z,11.45
2023-05-18T08:26:14.088Z,11.44
2023-05-18T08:27:13.204Z,11.49
2023-05-18T08:28:13.136Z,11.46
2023-05-18T08:29:13.176Z,11.51
2023-05-18T08:30:13.131Z,11.48
2023-05-18T08:31:13.120Z,11.38
2023-05-18T08:32:13.114Z,11.44
2023-05-18T08:33:13.206Z,11.57
2023-05-18T08:34:13.077Z,11.59
2023-05-18T08:35:13.098Z,11.56
2023-05-18T08:36:13.062Z,11.64
2023-05-18T08:37:13.056Z,11.74
2023-05-18T08:38:13.020Z,11.93
2023-05-18T08:39:13.088Z,12.05
2023-05-18T08:40:13.141Z,12.03
2023-05-18T08:41:13.027Z,12.03
2023-05-18T08:42:12.992Z,12.08
2023-05-18T08:43:13.040Z,12.12
2023-05-18T08:44:15.642Z,12.08
2023-05-18T08:45:13.035Z,11.94
2023-05-18T08:46:12.955Z,11.78
2023-05-18T08:47:12.971Z,11.74
2023-05-18T08:48:12.974Z,11.84
2023-05-18T08:49:13.146Z,11.88
2023-05-18T08:50:12.933Z,11.94
2023-05-18T08:51:12.916Z,12.05
2023-05-18T08:52:12.871Z,12.21
2023-05-18T08:53:12.921Z,12.25
2023-05-18T08:54:12.867Z,12.31
2023-05-18T08:55:12.911Z,12.46
2023-05-18T08:56:12.857Z,12.61
2023-05-18T08:57:12.852Z,12.58
2023-05-18T08:58:12.816Z,12.58
2023-05-18T08:59:12.917Z,12.52
2023-05-18T09:00:12.793Z,12.62
2023-05-18T09:01:20.816Z,12.74
2023-05-18T09:02:12.786Z,12.59
2023-05-18T09:03:12.796Z,12.61
2023-05-18T09:04:12.749Z,12.69
2023-05-18T09:05:12.799Z,12.85
2023-05-18T09:06:12.768Z,13.06
2023-05-18T09:07:12.772Z,13.19
2023-05-18T09:08:12.705Z,12.95
2023-05-18T09:09:12.741Z,12.95
2023-05-18T09:10:12.696Z,12.98
2023-05-18T09:11:12.739Z,12.80
2023-05-18T09:12:12.676Z,12.88
2023-05-18T09:13:12.672Z,12.85
2023-05-18T09:14:12.662Z,12.87
2023-05-18T09:15:12.670Z,13.01
2023-05-18T09:16:12.710Z,13.13
2023-05-18T09:17:12.679Z,12.91
2023-05-18T09:18:12.647Z,12.63
2023-05-18T09:19:12.640Z,12.44
2023-05-18T09:20:26.157Z,12.58
2023-05-18T09:21:12.584Z,12.84
2023-05-18T09:22:12.602Z,13.07
2023-05-18T09:23:12.585Z,13.28
2023-05-18T09:24:12.537Z,13.50
2023-05-18T09:25:12.552Z,13.50
2023-05-18T09:26:12.549Z,13.61
2023-05-18T09:27:12.537Z,13.73
2023-05-18T09:28:12.550Z,13.93
2023-05-18T09:29:12.534Z,13.90
2023-05-18T09:30:12.487Z,13.63
2023-05-18T09:31:15.279Z,13.69
2023-05-18T09:32:12.452Z,13.54
2023-05-18T09:33:12.560Z,13.48
2023-05-18T09:34:12.424Z,13.41
2023-05-18T09:35:12.499Z,13.35
2023-05-18T09:36:12.428Z,13.22
2023-05-18T09:37:12.451Z,13.16
2023-05-18T09:38:12.409Z,13.03
2023-05-18T09:39:12.449Z,13.03
2023-05-18T09:40:12.385Z,13.07
2023-05-18T09:41:12.453Z,13.13
2023-05-18T09:42:12.381Z,13.24
2023-05-18T09:43:12.426Z,13.28
2023-05-18T09:44:12.328Z,13.19
2023-05-18T09:45:12.330Z,13.06
2023-05-18T09:46:12.403Z,13.04
2023-05-18T09:47:12.358Z,12.94
2023-05-18T09:48:12.387Z,12.74
2023-05-18T09:49:12.303Z,12.87
2023-05-18T09:50:12.261Z,13.25
2023-05-18T09:51:12.286Z,13.53
2023-05-18T09:52:12.244Z,13.63
2023-05-18T09:53:12.287Z,13.76
2023-05-18T09:54:12.238Z,13.72
2023-05-18T09:55:12.248Z,13.73
2023-05-18T09:56:12.252Z,13.80
2023-05-18T09:57:12.222Z,13.91
2023-05-18T09:58:12.185Z,14.06
2023-05-18T09:59:12.233Z,13.84
2023-05-18T10:00:12.175Z,13.69
2023-05-18T10:01:12.274Z,13.61
2023-05-18T10:02:12.245Z,13.48
2023-05-18T10:03:12.151Z,13.46
2023-05-18T10:04:12.137Z,13.43
2023-05-18T10:05:12.153Z,13.31
2023-05-18T10:06:12.136Z,13.32
2023-05-18T10:07:12.127Z,13.36
2023-05-18T10:08:12.089Z,13.31
2023-05-18T10:09:12.086Z,13.27
2023-05-18T10:10:12.133Z,13.22
2023-05-18T10:11:12.068Z,13.19
2023-05-18T10:12:12.068Z,13.16
2023-05-18T10:13:12.089Z,13.03
2023-05-18T10:14:12.020Z,13.03
2023-05-18T10:15:12.024Z,13.19
2023-05-18T10:16:12.053Z,13.51
2023-05-18T10:17:15.657Z,13.80
2023-05-18T10:18:12.034Z,14.04
2023-05-18T10:19:12.075Z,14.16
2023-05-18T10:20:12.057Z,14.26
2023-05-18T10:21:12.060Z,14.35
2023-05-18T10:22:12.022Z,14.42
2023-05-18T10:23:11.937Z,14.71
2023-05-18T10:24:11.974Z,14.67
2023-05-18T10:25:11.924Z,14.69
2023-05-18T10:26:11.891Z,14.75
2023-05-18T10:27:11.886Z,14.71
2023-05-18T10:28:11.892Z,14.67
2023-05-18T10:29:11.906Z,14.94
2023-05-18T10:30:11.851Z,15.07
2023-05-18T10:31:11.971Z,15.12
2023-05-18T10:32:11.820Z,15.16
2023-05-18T10:33:24.770Z,15.00
2023-05-18T10:34:11.801Z,14.72
2023-05-18T10:35:18.762Z,14.63
2023-05-18T10:36:11.817Z,14.60
2023-05-18T10:37:12.275Z,14.59
2023-05-18T10:38:11.756Z,14.67
2023-05-18T10:39:11.770Z,14.46
2023-05-18T10:40:11.750Z,14.29
2023-05-18T10:41:11.754Z,14.42
2023-05-18T10:42:11.777Z,14.59
2023-05-18T10:43:11.746Z,14.48
2023-05-18T10:44:11.716Z,14.69
2023-05-18T10:45:11.700Z,14.94
2023-05-18T10:46:11.750Z,14.95
2023-05-18T10:47:11.844Z,14.94
2023-05-18T10:48:11.714Z,15.13
2023-05-18T10:49:11.689Z,15.04
2023-05-18T10:50:11.642Z,14.72
2023-05-18T10:51:11.673Z,14.60
2023-05-18T10:52:11.619Z,14.63
2023-05-18T10:53:11.615Z,14.85
2023-05-18T10:54:13.338Z,15.07
2023-05-18T10:55:11.623Z,14.80
2023-05-18T10:56:11.561Z,14.48
2023-05-18T10:57:11.588Z,14.49
2023-05-18T10:58:11.552Z,14.49
2023-05-18T10:59:11.585Z,14.54
2023-05-18T11:00:11.601Z,14.26
2023-05-18T11:01:11.692Z,14.17
2023-05-18T11:02:11.709Z,14.11
2023-05-18T11:03:11.601Z,14.06
2023-05-18T11:04:11.506Z,14.21
2023-05-18T11:05:11.900Z,14.05
2023-05-18T11:06:11.471Z,14.16
2023-05-18T11:07:11.474Z,14.13
2023-05-18T11:08:11.454Z,14.04
2023-05-18T11:09:11.497Z,14.11
2023-05-18T11:10:11.445Z,14.08
2023-05-18T11:11:11.464Z,14.09
2023-05-18T11:12:11.438Z,14.45
2023-05-18T11:13:11.425Z,14.67
2023-05-18T11:14:11.400Z,14.83
2023-05-18T11:15:11.414Z,14.93
2023-05-18T11:16:11.410Z,14.83
2023-05-18T11:17:11.353Z,14.93
2023-05-18T11:18:11.446Z,14.79
2023-05-18T11:19:11.430Z,14.97
2023-05-18T11:20:11.323Z,15.20
2023-05-18T11:21:11.355Z,15.41
2023-05-18T11:22:11.284Z,15.44
2023-05-18T11:23:11.291Z,15.38
2023-05-18T11:24:11.273Z,15.46
2023-05-18T11:25:11.350Z,15.53
2023-05-18T11:26:11.262Z,15.44
2023-05-18T11:27:11.264Z,15.49
2023-05-18T11:28:11.290Z,15.51
2023-05-18T11:29:11.258Z,15.34
2023-05-18T11:31:11.217Z,15.30
2023-05-18T11:33:11.391Z,15.53
2023-05-18T11:34:11.156Z,15.44
2023-05-18T11:35:11.218Z,15.49
2023-05-18T11:36:11.149Z,15.77
2023-05-18T11:37:11.159Z,16.10
2023-05-18T11:38:11.127Z,16.25
2023-05-18T11:39:11.186Z,15.93
2023-05-18T11:40:11.710Z,15.74
2023-05-18T11:41:11.219Z,15.74
2023-05-18T11:42:11.077Z,15.58
2023-05-18T11:43:11.101Z,15.53
2023-05-18T11:44:11.104Z,15.44
2023-05-18T11:45:11.066Z,15.48
2023-05-18T11:46:11.059Z,15.55
2023-05-18T11:47:11.130Z,15.53
2023-05-18T11:48:11.116Z,15.59
2023-05-18T11:49:11.088Z,15.53
2023-05-18T11:50:10.991Z,15.64
2023-05-18T11:51:11.013Z,15.71
2023-05-18T11:52:10.993Z,15.70
2023-05-18T11:53:10.973Z,15.64
2023-05-18T11:54:10.941Z,15.99
2023-05-18T11:55:11.236Z,16.22
2023-05-18T11:56:10.929Z,16.60
2023-05-18T11:57:11.179Z,16.32
2023-05-18T11:58:10.910Z,16.13
2023-05-18T11:59:10.907Z,16.08
2023-05-18T12:00:11.590Z,15.96
2023-05-18T12:01:10.896Z,15.80
2023-05-18T12:02:10.994Z,15.66
2023-05-18T12:03:10.989Z,15.43
2023-05-18T12:04:10.918Z,15.28
2023-05-18T12:05:10.897Z,15.53
2023-05-18T12:06:10.841Z,15.62
2023-05-18T12:07:10.852Z,15.77
2023-05-18T12:08:10.792Z,15.91
2023-05-18T12:09:10.810Z,16.23
2023-05-18T12:10:10.793Z,16.29
2023-05-18T12:11:10.812Z,16.40
2023-05-18T12:12:10.761Z,16.48
2023-05-18T12:13:10.767Z,16.29
2023-05-18T12:14:10.728Z,16.07
2023-05-18T12:15:10.737Z,15.89
2023-05-18T12:16:10.724Z,15.91
2023-05-18T12:17:10.823Z,15.76
2023-05-18T12:18:10.693Z,15.71
2023-05-18T12:19:10.752Z,15.98
2023-05-18T12:20:10.767Z,15.93
2023-05-18T12:21:10.705Z,16.07
2023-05-18T12:22:10.664Z,16.40
2023-05-18T12:23:10.661Z,16.60
2023-05-18T12:24:10.618Z,16.59
2023-05-18T12:25:10.622Z,16.66
2023-05-18T12:26:10.625Z,16.69
2023-05-18T12:27:10.646Z,16.78
2023-05-18T12:28:10.591Z,16.37
2023-05-18T12:29:10.613Z,16.16
2023-05-18T12:30:10.580Z,16.07
2023-05-18T12:31:10.639Z,16.16
2023-05-18T12:32:10.558Z,16.36
2023-05-18T12:33:10.566Z,16.26
2023-05-18T12:34:10.542Z,15.98
2023-05-18T12:35:10.545Z,15.95
2023-05-18T12:36:10.557Z,15.91
2023-05-18T12:37:11.307Z,16.01
2023-05-18T12:38:10.489Z,16.03
2023-05-18T12:39:10.569Z,15.84
2023-05-18T12:40:10.505Z,15.52
2023-05-18T12:41:10.464Z,15.40
2023-05-18T12:42:10.431Z,15.20
2023-05-18T12:43:10.448Z,15.40
2023-05-18T12:44:10.441Z,15.64
2023-05-18T12:45:11.405Z,15.62
2023-05-18T12:46:10.690Z,15.62
2023-05-18T12:47:10.385Z,15.22
2023-05-18T12:48:10.474Z,15.33
2023-05-18T12:49:10.374Z,15.64
2023-05-18T12:50:10.452Z,15.76
2023-05-18T12:51:10.348Z,15.91
2023-05-18T12:52:10.348Z,16.14
2023-05-18T12:53:10.330Z,16.48
2023-05-18T12:54:10.319Z,16.80
2023-05-18T12:55:10.307Z,16.88
2023-05-18T12:56:10.299Z,17.12
2023-05-18T12:57:10.296Z,17.15
2023-05-18T12:58:10.293Z,17.03
2023-05-18T12:59:10.243Z,16.80
2023-05-18T13:00:11.588Z,16.52
2023-05-18T13:01:10.283Z,16.42
2023-05-18T13:02:10.260Z,16.17
2023-05-18T13:03:13.765Z,16.10
2023-05-18T13:04:10.382Z,16.36
2023-05-18T13:05:10.241Z,16.55
2023-05-18T13:06:10.203Z,16.36
2023-05-18T13:07:10.220Z,16.59
2023-05-18T13:08:10.170Z,16.67
2023-05-18T13:09:11.709Z,16.96
2023-05-18T13:10:10.263Z,17.05
2023-05-18T13:11:14.119Z,16.96
2023-05-18T13:12:10.141Z,17.15
2023-05-18T13:13:10.203Z,17.17
2023-05-18T13:14:10.132Z,17.27